createdAt,value
2023-02-14T00:02:26.664Z,19.55
2023-02-14T00:04:57.875Z,24.10
2023-02-14T00:07:27.259Z,26.33
2023-02-14T00:10:10.283Z,24.98
2023-02-14T00:12:39.841Z,24.67
2023-02-14T00:15:27.906Z,22.60
2023-02-14T00:17:57.306Z,22.65
2023-02-14T00:20:24.723Z,26.58
2023-02-14T00:23:00.860Z,23.67
2023-02-14T00:25:30.554Z,25.20
2023-02-14T00:28:00.725Z,25.33
2023-02-14T00:30:29.582Z,24.70
2023-02-14T00:32:56.779Z,24.38
2023-02-14T00:35:24.188Z,26.63
2023-02-14T00:37:57.001Z,26.33
2023-02-14T00:42:57.354Z,28.10
2023-02-14T00:45:34.348Z,26.80
2023-02-14T00:48:07.415Z,27.75
2023-02-14T00:50:36.610Z,27.25
2023-02-14T00:53:03.788Z,22.42
2023-02-14T00:55:33.160Z,23.33
2023-02-14T00:58:06.467Z,26.75
2023-02-14T01:00:35.494Z,25.55
2023-02-14T01:03:04.162Z,26.17
2023-02-14T01:05:42.722Z,26.10
2023-02-14T01:08:09.891Z,27.83
2023-02-14T01:10:45.055Z,27.03
2023-02-14T01:13:12.712Z,24.77
2023-02-14T01:15:40.706Z,35.50
2023-02-14T01:18:08.040Z,30.25
2023-02-14T01:20:35.592Z,26.30
2023-02-14T01:23:07.242Z,30.63
2023-02-14T01:25:34.750Z,28.13
2023-02-14T01:28:04.668Z,28.67
2023-02-14T01:30:34.557Z,25.83
2023-02-14T01:33:14.451Z,31.88
2023-02-14T01:35:45.114Z,34.80
2023-02-14T01:38:12.230Z,27.90
2023-02-14T01:40:52.025Z,27.90
2023-02-14T01:43:25.121Z,31.48
2023-02-14T01:46:03.156Z,25.70
2023-02-14T01:48:30.309Z,31.10
2023-02-14T01:50:59.293Z,27.02
2023-02-14T01:53:28.423Z,32.45
2023-02-14T01:56:09.656Z,29.23
2023-02-14T01:58:48.839Z,28.85
2023-02-14T02:01:24.457Z,34.13
2023-02-14T02:04:00.424Z,28.10
2023-02-14T02:06:35.607Z,27.95
2023-02-14T02:09:10.178Z,28.17
2023-02-14T02:11:38.181Z,31.10
2023-02-14T02:14:13.616Z,24.40
2023-02-14T02:17:02.534Z,29.80
2023-02-14T02:19:48.075Z,26.95
2023-02-14T02:22:17.548Z,27.90
2023-02-14T02:25:00.948Z,26.27
2023-02-14T02:27:41.545Z,31.77
2023-02-14T02:30:22.734Z,28.50
2023-02-14T02:33:16.422Z,30.00
2023-02-14T02:35:52.390Z,32.33
2023-02-14T02:38:38.666Z,27.90
2023-02-14T02:41:19.725Z,29.50
2023-02-14T02:44:02.305Z,28.23
2023-02-14T02:46:57.436Z,25.95
2023-02-14T02:50:05.596Z,30.40
2023-02-14T02:52:59.411Z,28.08
2023-02-14T02:56:02.720Z,30.05
2023-02-14T02:58:37.504Z,29.98
2023-02-14T03:01:13.139Z,30.42
2023-02-14T03:04:02.973Z,27.92
2023-02-14T03:06:31.323Z,32.17
2023-02-14T03:09:12.542Z,35.10
2023-02-14T03:11:43.565Z,30.63
2023-02-14T03:14:25.324Z,31.33
2023-02-14T03:17:00.204Z,35.90
2023-02-14T03:19:51.043Z,42.10
2023-02-14T03:24:49.746Z,37.72
2023-02-14T03:27:29.900Z,35.88
2023-02-14T03:30:13.030Z,31.20
2023-02-14T03:32:51.933Z,37.00
2023-02-14T03:35:28.136Z,31.80
2023-02-14T03:38:06.711Z,36.90
2023-02-14T03:40:41.889Z,35.30
2023-02-14T03:43:17.844Z,37.88
2023-02-14T03:45:49.049Z,39.55
2023-02-14T03:48:21.736Z,37.08
2023-02-14T03:50:56.224Z,40.47
2023-02-14T03:53:27.722Z,41.03
2023-02-14T03:56:14.012Z,35.03
2023-02-14T03:58:50.268Z,36.80
2023-02-14T04:01:21.735Z,33.25
2023-02-14T04:03:52.203Z,32.70
2023-02-14T04:06:20.221Z,42.80
2023-02-14T04:08:48.873Z,35.47
2023-02-14T04:13:46.929Z,36.97
2023-02-14T04:16:14.395Z,35.67
2023-02-14T04:19:03.166Z,36.90
2023-02-14T04:21:33.161Z,38.28
2023-02-14T04:24:05.633Z,43.13
2023-02-14T04:26:32.813Z,45.95
2023-02-14T04:29:01.353Z,38.17
2023-02-14T04:31:33.807Z,43.05
2023-02-14T04:34:03.495Z,41.55
2023-02-14T04:36:40.874Z,43.60
2023-02-14T04:39:55.954Z,42.67
2023-02-14T04:42:24.640Z,48.95
2023-02-14T04:44:57.469Z,47.72
2023-02-14T04:47:24.613Z,54.72
2023-02-14T04:49:52.021Z,48.17
2023-02-14T04:52:23.909Z,50.33
2023-02-14T04:54:59.918Z,49.03
2023-02-14T04:57:35.006Z,45.13
2023-02-14T05:00:04.520Z,54.03
2023-02-14T05:02:32.041Z,44.53
2023-02-14T05:04:59.803Z,49.67
2023-02-14T05:07:29.523Z,47.03
2023-02-14T05:10:03.210Z,49.75
2023-02-14T05:12:32.920Z,48.63
2023-02-14T05:15:07.299Z,50.77
2023-02-14T05:17:39.540Z,47.75
2023-02-14T05:20:09.859Z,42.40
2023-02-14T05:22:44.665Z,54.17
2023-02-14T05:25:17.901Z,47.30
2023-02-14T05:27:47.349Z,47.75
2023-02-14T05:30:36.551Z,45.80
2023-02-14T05:33:05.096Z,56.28
2023-02-14T05:35:46.827Z,48.90
2023-02-14T05:38:24.154Z,47.00
2023-02-14T05:40:57.082Z,47.22
2023-02-14T05:43:24.410Z,47.05
2023-02-14T05:45:54.949Z,50.85
2023-02-14T05:48:37.594Z,44.05
2023-02-14T05:51:07.524Z,48.85
2023-02-14T05:53:35.135Z,46.33
2023-02-14T05:56:07.802Z,58.85
2023-02-14T05:58:39.857Z,58.97
2023-02-14T06:01:12.985Z,51.05
2023-02-14T06:03:42.848Z,55.20
2023-02-14T06:06:10.018Z,44.13
2023-02-14T06:08:51.603Z,46.05
2023-02-14T06:11:18.607Z,53.35
2023-02-14T06:13:45.793Z,45.45
2023-02-14T06:16:12.842Z,47.55
2023-02-14T06:18:39.957Z,56.38
2023-02-14T06:21:07.398Z,47.85
2023-02-14T06:23:40.179Z,53.13
2023-02-14T06:26:07.381Z,45.08
2023-02-14T06:28:34.520Z,44.10
2023-02-14T06:31:07.263Z,52.80
2023-02-14T06:33:34.421Z,46.90
2023-02-14T06:36:01.393Z,52.22
2023-02-14T06:38:31.065Z,56.55
2023-02-14T06:41:17.282Z,47.85
2023-02-14T06:43:53.176Z,52.95
2023-02-14T06:46:21.269Z,48.97
2023-02-14T06:48:50.906Z,50.35
2023-02-14T06:51:24.182Z,47.42
2023-02-14T06:54:03.699Z,50.92
2023-02-14T06:57:00.260Z,51.67
2023-02-14T06:59:29.451Z,47.45
2023-02-14T07:02:06.791Z,48.45
2023-02-14T07:05:10.788Z,54.83
2023-02-14T07:07:57.037Z,46.65
2023-02-14T07:10:24.830Z,44.40
2023-02-14T07:12:53.158Z,51.45
2023-02-14T07:15:22.867Z,51.47
2023-02-14T07:18:27.241Z,51.00
2023-02-14T07:21:00.768Z,50.05
2023-02-14T07:23:38.049Z,50.78
2023-02-14T07:26:12.323Z,48.40
2023-02-14T07:29:05.384Z,62.53
2023-02-14T07:31:34.138Z,52.53
2023-02-14T07:34:09.710Z,50.60
2023-02-14T07:42:12.599Z,46.78
2023-02-14T07:45:20.416Z,37.35
2023-02-14T07:47:42.952Z,51.38
2023-02-14T07:50:17.108Z,56.83
2023-02-14T07:52:54.056Z,55.25
2023-02-14T07:55:21.424Z,49.05
2023-02-14T07:58:03.106Z,53.70
2023-02-14T08:00:31.374Z,41.28
2023-02-14T08:03:04.033Z,56.00
2023-02-14T08:05:31.209Z,56.08
2023-02-14T08:07:58.371Z,49.15
2023-02-14T08:10:25.476Z,40.35
2023-02-14T08:12:58.775Z,51.53
2023-02-14T08:15:51.076Z,47.38
2023-02-14T08:18:18.943Z,51.70
2023-02-14T08:20:48.586Z,56.45
2023-02-14T08:23:16.089Z,38.25
2023-02-14T08:25:43.217Z,43.58
2023-02-14T08:28:10.463Z,43.38
2023-02-14T08:30:38.157Z,38.33
2023-02-14T08:33:06.133Z,33.22
2023-02-14T08:35:33.352Z,47.28
2023-02-14T08:38:00.575Z,40.72
2023-02-14T08:40:27.852Z,43.30
2023-02-14T08:42:55.077Z,43.00
2023-02-14T08:45:22.155Z,49.17
2023-02-14T08:47:49.325Z,35.92
2023-02-14T08:50:17.128Z,37.50
2023-02-14T08:52:44.499Z,36.65
2023-02-14T08:55:14.899Z,40.80
2023-02-14T08:57:42.131Z,37.20
2023-02-14T09:00:09.861Z,49.85
2023-02-14T09:02:37.233Z,38.90
2023-02-14T09:05:04.737Z,34.53
2023-02-14T09:07:31.974Z,30.67
2023-02-14T09:09:59.050Z,37.35
2023-02-14T09:12:26.261Z,34.67
2023-02-14T09:14:53.491Z,29.13
2023-02-14T09:17:21.059Z,39.95
2023-02-14T09:19:48.186Z,38.88
2023-02-14T09:22:15.250Z,28.25
2023-02-14T09:24:42.398Z,40.15
2023-02-14T09:27:09.601Z,41.25
2023-02-14T09:29:36.791Z,35.22
2023-02-14T09:32:05.083Z,29.00
2023-02-14T09:34:53.185Z,33.63
2023-02-14T09:37:20.344Z,37.20
2023-02-14T09:39:47.568Z,29.98
2023-02-14T09:44:48.510Z,30.23
2023-02-14T09:47:21.589Z,31.42
2023-02-14T09:49:49.942Z,35.22
2023-02-14T09:52:18.898Z,25.05
2023-02-14T09:54:49.697Z,35.17
2023-02-14T09:57:17.145Z,31.35
2023-02-14T09:59:48.125Z,37.25
2023-02-14T10:02:24.352Z,29.67
2023-02-14T10:05:06.401Z,30.67
2023-02-14T10:07:36.277Z,36.63
2023-02-14T10:10:08.596Z,33.17
2023-02-14T10:12:38.047Z,28.23
2023-02-14T10:15:22.585Z,29.40
2023-02-14T10:18:22.327Z,32.08
2023-02-14T10:20:53.373Z,29.98
2023-02-14T10:23:34.451Z,31.60
2023-02-14T10:26:03.246Z,27.63
2023-02-14T10:28:35.241Z,32.10
2023-02-14T10:31:05.365Z,29.98
2023-02-14T10:33:34.417Z,33.38
2023-02-14T10:36:04.943Z,31.13
2023-02-14T10:38:40.810Z,36.83
2023-02-14T10:41:10.917Z,22.00
2023-02-14T10:43:42.585Z,31.05
2023-02-14T10:46:09.754Z,35.53
2023-02-14T10:48:57.300Z,31.58
2023-02-14T10:51:44.805Z,32.45
2023-02-14T10:54:20.939Z,33.47
2023-02-14T10:56:48.077Z,27.85
2023-02-14T10:59:34.150Z,32.13
2023-02-14T11:02:02.042Z,22.98
2023-02-14T11:04:31.400Z,35.08
2023-02-14T11:06:58.845Z,30.92
2023-02-14T11:09:25.835Z,35.08
2023-02-14T11:11:57.646Z,29.45
2023-02-14T11:14:30.216Z,36.15
2023-02-14T11:16:58.783Z,29.38
2023-02-14T11:19:30.230Z,31.63
2023-02-14T11:21:59.230Z,33.35
2023-02-14T11:24:33.956Z,31.45
2023-02-14T11:27:01.037Z,31.00
2023-02-14T11:29:30.263Z,32.38
2023-02-14T11:31:58.114Z,29.00
2023-02-14T11:34:40.180Z,31.77
2023-02-14T11:37:19.930Z,28.60
2023-02-14T11:39:47.049Z,24.67
2023-02-14T11:42:14.387Z,27.73
2023-02-14T11:44:54.412Z,32.22
2023-02-14T11:47:29.414Z,29.48
2023-02-14T11:50:06.080Z,29.13
2023-02-14T11:52:34.069Z,28.73
2023-02-14T11:55:01.585Z,28.15
2023-02-14T11:57:36.200Z,24.85
2023-02-14T12:00:04.991Z,24.77
2023-02-14T12:02:43.607Z,31.60
2023-02-14T12:05:28.910Z,29.17
2023-02-14T12:07:57.794Z,28.17
2023-02-14T12:10:29.714Z,22.58
2023-02-14T12:12:59.099Z,31.95
2023-02-14T12:15:35.325Z,19.52
2023-02-14T12:18:18.478Z,31.50
2023-02-14T12:20:57.325Z,28.35
2023-02-14T12:23:27.598Z,31.90
2023-02-14T12:26:01.773Z,28.85
2023-02-14T12:28:38.493Z,34.45
2023-02-14T12:31:12.615Z,31.00
2023-02-14T12:33:40.482Z,29.58
2023-02-14T12:36:10.982Z,29.55
2023-02-14T12:39:12.832Z,27.83
2023-02-14T12:41:45.141Z,22.10
2023-02-14T12:44:21.494Z,24.38
2023-02-14T12:47:01.127Z,27.55
2023-02-14T12:49:28.291Z,28.92
2023-02-14T12:52:04.038Z,26.63
2023-02-14T12:54:50.375Z,28.08
2023-02-14T12:57:17.437Z,26.60
2023-02-14T12:59:50.617Z,22.83
2023-02-14T13:02:27.058Z,24.60
2023-02-14T13:05:06.286Z,25.70
2023-02-14T13:07:39.466Z,26.73
2023-02-14T13:10:21.957Z,28.05
2023-02-14T13:12:58.456Z,25.15
2023-02-14T13:15:33.363Z,28.85
2023-02-14T13:18:04.257Z,24.15
2023-02-14T13:20:43.482Z,26.77
2023-02-14T13:23:19.449Z,21.38
2023-02-14T13:25:50.085Z,25.60
2023-02-14T13:28:17.918Z,20.70
2023-02-14T13:30:45.035Z,25.83
2023-02-14T13:33:30.133Z,23.33
2023-02-14T13:36:00.742Z,23.70
2023-02-14T13:38:28.571Z,21.20
2023-02-14T13:40:56.773Z,24.65
2023-02-14T13:43:42.555Z,23.10
2023-02-14T13:46:09.641Z,21.90
2023-02-14T13:48:39.305Z,21.30
2023-02-14T13:51:10.537Z,21.00
2023-02-14T13:53:43.676Z,20.08
2023-02-14T13:56:15.195Z,20.88
2023-02-14T13:58:52.568Z,21.27
2023-02-14T14:01:31.830Z,20.73
2023-02-14T14:04:00.474Z,21.40
2023-02-14T14:06:27.895Z,18.73
2023-02-14T14:08:57.060Z,21.40
2023-02-14T14:11:24.193Z,22.50
2023-02-14T14:13:52.797Z,21.73
2023-02-14T14:16:21.382Z,20.77
2023-02-14T14:19:09.756Z,24.95
2023-02-14T14:21:58.859Z,20.42
2023-02-14T14:24:28.484Z,19.90
2023-02-14T14:27:01.786Z,17.88
2023-02-14T14:29:31.891Z,21.10
2023-02-14T14:32:13.419Z,24.35
2023-02-14T14:34:55.172Z,22.38
2023-02-14T14:37:23.781Z,24.02
2023-02-14T14:40:00.271Z,22.30
2023-02-14T14:42:32.499Z,22.60
2023-02-14T14:45:22.815Z,19.00
2023-02-14T14:47:54.796Z,20.45
2023-02-14T14:50:29.509Z,19.27
2023-02-14T14:52:59.203Z,21.80
2023-02-14T14:57:58.333Z,21.02
2023-02-14T15:00:27.334Z,16.58
2023-02-14T15:03:01.716Z,22.50
2023-02-14T15:05:35.654Z,18.98
2023-02-14T15:08:20.346Z,19.20
2023-02-14T15:11:17.030Z,20.67
2023-02-14T15:13:51.351Z,19.17
2023-02-14T15:16:42.184Z,20.67
2023-02-14T15:19:13.847Z,16.42
2023-02-14T15:21:49.416Z,17.85
2023-02-14T15:24:19.425Z,18.02
2023-02-14T15:26:53.594Z,18.00
2023-02-14T15:29:30.980Z,21.88
2023-02-14T15:32:05.021Z,19.90
2023-02-14T15:34:38.294Z,22.20
2023-02-14T15:37:09.825Z,19.40
2023-02-14T15:39:42.212Z,20.88
2023-02-14T15:42:34.140Z,20.05
2023-02-14T15:45:21.249Z,22.80
2023-02-14T15:47:50.080Z,18.00
2023-02-14T15:50:20.699Z,21.67
2023-02-14T15:52:56.430Z,22.98
2023-02-14T15:55:36.942Z,21.42
2023-02-14T16:00:35.192Z,20.23
2023-02-14T16:03:14.030Z,21.42
2023-02-14T16:06:03.507Z,24.08
2023-02-14T16:08:33.327Z,19.98
2023-02-14T16:11:22.558Z,19.17
2023-02-14T16:13:49.710Z,22.00
2023-02-14T16:16:17.051Z,24.02
2023-02-14T16:18:55.237Z,27.80
2023-02-14T16:21:34.940Z,27.48
2023-02-14T16:24:08.336Z,29.53
2023-02-14T16:26:48.229Z,21.30
2023-02-14T16:29:22.682Z,24.98
2023-02-14T16:32:14.810Z,27.70
2023-02-14T16:34:46.660Z,27.27
2023-02-14T16:37:22.191Z,24.75
2023-02-14T16:39:51.801Z,25.50
2023-02-14T16:42:20.093Z,26.38
2023-02-14T16:44:59.841Z,24.83
2023-02-14T16:47:27.925Z,31.20
2023-02-14T16:49:57.249Z,29.80
2023-02-14T16:52:34.040Z,29.27
2023-02-14T16:55:10.395Z,29.02
2023-02-14T16:57:40.608Z,26.42
2023-02-14T17:03:07.011Z,26.75
2023-02-14T17:05:43.591Z,24.55
2023-02-14T17:08:16.122Z,27.08
2023-02-14T17:10:46.549Z,28.75
2023-02-14T17:13:13.856Z,30.80
2023-02-14T17:15:46.618Z,30.20
2023-02-14T17:18:26.650Z,27.00
2023-02-14T17:21:02.492Z,32.85
2023-02-14T17:23:32.502Z,30.08
2023-02-14T17:26:04.597Z,37.42
2023-02-14T17:28:32.787Z,32.45
2023-02-14T17:31:04.807Z,36.80
2023-02-14T17:33:41.676Z,33.47
2023-02-14T17:36:12.880Z,31.80
2023-02-14T17:38:46.197Z,26.95
2023-02-14T17:41:21.553Z,28.13
2023-02-14T17:43:58.378Z,34.10
2023-02-14T17:46:32.364Z,31.65
2023-02-14T17:49:09.710Z,25.52
2023-02-14T17:51:36.813Z,29.88
2023-02-14T17:54:04.177Z,25.08
2023-02-14T17:56:33.693Z,37.90
2023-02-14T17:59:00.955Z,38.47
2023-02-14T18:01:36.363Z,26.90
2023-02-14T18:04:08.686Z,31.80
2023-02-14T18:06:59.677Z,31.38
2023-02-14T18:09:31.448Z,34.70
2023-02-14T18:12:00.716Z,32.45
2023-02-14T18:14:30.568Z,38.90
2023-02-14T18:17:03.516Z,32.78
2023-02-14T18:19:30.768Z,41.25
2023-02-14T18:22:00.698Z,40.38
2023-02-14T18:24:32.080Z,32.90
2023-02-14T18:26:59.280Z,39.25
2023-02-14T18:29:26.528Z,33.05
2023-02-14T18:31:59.698Z,40.90
2023-02-14T18:34:27.014Z,40.90
2023-02-14T18:36:58.217Z,38.40
2023-02-14T18:39:39.871Z,26.48
2023-02-14T18:42:12.187Z,44.17
2023-02-14T18:44:41.618Z,40.72
2023-02-14T18:47:15.260Z,41.67
2023-02-14T18:49:51.564Z,41.95
2023-02-14T18:52:27.727Z,42.97
2023-02-14T18:54:59.256Z,36.25
2023-02-14T18:57:36.748Z,48.35
2023-02-14T19:00:09.833Z,34.55
2023-02-14T19:10:53.274Z,33.38
2023-02-14T19:13:27.350Z,34.28
2023-02-14T19:16:04.279Z,39.88
2023-02-14T19:18:34.527Z,29.23
2023-02-14T19:21:17.703Z,24.35
2023-02-14T19:23:45.121Z,55.03
2023-02-14T19:26:14.116Z,42.20
2023-02-14T19:28:44.567Z,35.50
2023-02-14T19:31:11.852Z,39.65
2023-02-14T19:33:41.746Z,28.85
2023-02-14T19:36:15.211Z,48.78
2023-02-14T19:38:45.638Z,49.97
2023-02-14T19:41:37.289Z,42.55
2023-02-14T19:44:16.334Z,42.05
2023-02-14T19:46:46.103Z,45.80
2023-02-14T19:49:21.434Z,43.00
2023-02-14T19:51:54.606Z,44.55
2023-02-14T19:54:31.195Z,53.78
2023-02-14T19:57:06.268Z,51.60
2023-02-14T19:59:43.135Z,43.05
2023-02-14T20:02:19.650Z,40.65
2023-02-14T20:04:46.931Z,40.13
2023-02-14T20:07:14.240Z,51.15
2023-02-14T20:09:57.528Z,38.95
2023-02-14T20:12:40.669Z,34.13
2023-02-14T20:15:11.152Z,49.10
2023-02-14T20:17:44.845Z,36.35
2023-02-14T20:20:18.880Z,49.45
2023-02-14T20:22:49.285Z,45.80
2023-02-14T20:25:26.318Z,24.45
2023-02-14T20:27:54.678Z,40.40
2023-02-14T20:30:24.769Z,29.08
2023-02-14T20:32:58.024Z,46.80
2023-02-14T20:35:25.145Z,46.90
2023-02-14T20:37:57.601Z,52.13
2023-02-14T20:40:28.578Z,47.67
2023-02-14T20:43:06.226Z,53.15
2023-02-14T20:48:19.570Z,52.60
2023-02-14T20:50:52.724Z,54.60
2023-02-14T20:53:31.441Z,52.05
2023-02-14T20:56:01.039Z,51.90
2023-02-14T20:58:30.599Z,44.10
2023-02-14T21:01:16.925Z,58.22
2023-02-14T21:03:49.034Z,53.70
2023-02-14T21:06:28.701Z,59.70
2023-02-14T21:08:58.475Z,56.70
2023-02-14T21:11:28.925Z,50.50
2023-02-14T21:14:11.259Z,52.33
2023-02-14T21:16:45.302Z,55.83
2023-02-14T21:22:00.031Z,48.40
2023-02-14T21:27:11.325Z,62.65
2023-02-14T21:29:52.544Z,50.33
2023-02-14T21:32:22.516Z,47.40
2023-02-14T21:34:57.791Z,53.03
2023-02-14T21:37:33.909Z,56.03
2023-02-14T21:40:11.476Z,46.95
2023-02-14T21:42:45.331Z,59.83
2023-02-14T21:45:33.192Z,54.88
2023-02-14T21:48:21.259Z,56.75
2023-02-14T21:50:48.462Z,51.13
2023-02-14T21:53:18.378Z,61.53
2023-02-14T21:55:59.430Z,61.05
2023-02-14T21:58:29.165Z,63.53
2023-02-14T22:00:58.832Z,65.07
2023-02-14T22:03:34.886Z,34.50
2023-02-14T22:06:06.085Z,60.47
2023-02-14T22:08:39.525Z,56.25
2023-02-14T22:11:10.928Z,64.22
2023-02-14T22:16:46.186Z,61.05
2023-02-14T22:19:21.730Z,60.58
2023-02-14T22:22:19.335Z,65.38
2023-02-14T22:24:53.587Z,59.85
2023-02-14T22:27:30.398Z,51.70
2023-02-14T22:32:44.554Z,49.72
2023-02-14T22:35:24.840Z,58.38
2023-02-14T22:38:00.715Z,65.05
2023-02-14T22:40:35.561Z,60.65
2023-02-14T22:43:11.509Z,67.00
2023-02-14T22:45:38.640Z,57.67
2023-02-14T22:48:10.645Z,66.85
2023-02-14T22:50:37.868Z,57.67
2023-02-14T22:53:16.533Z,56.17
2023-02-14T22:55:46.923Z,57.42
2023-02-14T22:58:24.141Z,63.92
2023-02-14T23:00:54.188Z,62.85
2023-02-14T23:03:21.936Z,53.63
2023-02-14T23:06:12.806Z,48.88
2023-02-14T23:11:18.051Z,62.72
2023-02-14T23:14:09.838Z,55.42
2023-02-14T23:16:56.080Z,61.13
2023-02-14T23:19:43.567Z,59.38
2023-02-14T23:22:26.386Z,58.90
2023-02-14T23:25:06.249Z,64.82
2023-02-14T23:27:54.772Z,67.03
2023-02-14T23:30:22.412Z,63.50
2023-02-14T23:32:57.256Z,63.92
2023-02-14T23:35:32.459Z,56.30
2023-02-14T23:38:01.654Z,60.80
2023-02-14T23:40:29.841Z,61.75
2023-02-14T23:42:59.858Z,65.38
2023-02-14T23:45:35.303Z,62.63
2023-02-14T23:48:18.340Z,67.40
2023-02-14T23:50:50.147Z,67.90
2023-02-14T23:53:19.146Z,72.00
2023-02-14T23:55:52.143Z,68.18
2023-02-14T23:58:22.067Z,59.28
